sensor_id;sensor_type;location;lat;lon;timestamp;pressure;altitude;pressure_sealevel;temperature;humidity
79729;BME280;69218;52.132;5.418;2023-08-06T00:00:27;100576.66;;;15.22;90.37
79729;BME280;69218;52.132;5.418;2023-08-06T00:02:54;100574.03;;;15.22;90.49
79729;BME280;69218;52.132;5.418;2023-08-06T00:05:23;100582.91;;;15.21;90.45
79729;BME280;69218;52.132;5.418;2023-08-06T00:07:50;100577.78;;;15.20;89.58
79729;BME280;69218;52.132;5.418;2023-08-06T00:10:17;100577.78;;;15.20;90.21
79729;BME280;69218;52.132;5.418;2023-08-06T00:12:44;100579.31;;;15.22;90.42
79729;BME280;69218;52.132;5.418;2023-08-06T00:15:11;100575.81;;;15.22;90.75
79729;BME280;69218;52.132;5.418;2023-08-06T00:17:38;100568.75;;;15.22;89.83
79729;BME280;69218;52.132;5.418;2023-08-06T00:20:05;100580.13;;;15.23;89.73
79729;BME280;69218;52.132;5.418;2023-08-06T00:22:34;100577.50;;;15.23;90.28
79729;BME280;69218;52.132;5.418;2023-08-06T00:25:02;100573.16;;;15.22;89.08
79729;BME280;69218;52.132;5.418;2023-08-06T00:27:28;100574.84;;;15.23;89.41
79729;BME280;69218;52.132;5.418;2023-08-06T00:29:55;100564.41;;;15.21;89.79
79729;BME280;69218;52.132;5.418;2023-08-06T00:32:22;100564.59;;;15.20;90.41
79729;BME280;69218;52.132;5.418;2023-08-06T00:34:48;100564.75;;;15.18;90.44
79729;BME280;69218;52.132;5.418;2023-08-06T00:37:18;100562.94;;;15.19;90.87
79729;BME280;69218;52.132;5.418;2023-08-06T00:39:44;100565.41;;;15.20;89.62
79729;BME280;69218;52.132;5.418;2023-08-06T00:42:11;100568.88;;;15.21;90.03
79729;BME280;69218;52.132;5.418;2023-08-06T00:44:38;100567.06;;;15.21;90.36
79729;BME280;69218;52.132;5.418;2023-08-06T00:47:06;100561.13;;;15.19;90.72
79729;BME280;69218;52.132;5.418;2023-08-06T00:49:34;100564.59;;;15.20;90.08
79729;BME280;69218;52.132;5.418;2023-08-06T00:52:03;100569.22;;;15.18;90.54
79729;BME280;69218;52.132;5.418;2023-08-06T00:54:30;100564.75;;;15.18;90.20
79729;BME280;69218;52.132;5.418;2023-08-06T00:56:58;100574.16;;;15.21;90.11
79729;BME280;69218;52.132;5.418;2023-08-06T00:59:26;100562.59;;;15.22;89.83
79729;BME280;69218;52.132;5.418;2023-08-06T01:01:53;100564.91;;;15.17;89.86
79729;BME280;69218;52.132;5.418;2023-08-06T01:04:20;100568.38;;;15.17;90.31
79729;BME280;69218;52.132;5.418;2023-08-06T01:06:49;100569.22;;;15.18;90.56
79729;BME280;69218;52.132;5.418;2023-08-06T01:09:34;100564.59;;;15.20;90.11
79729;BME280;69218;52.132;5.418;2023-08-06T01:12:09;100565.25;;;15.22;90.44
79729;BME280;69218;52.132;5.418;2023-08-06T01:15:11;100558.00;;;15.24;90.04
79729;BME280;69218;52.132;5.418;2023-08-06T01:17:41;100557.31;;;15.22;89.79
79729;BME280;69218;52.132;5.418;2023-08-06T01:20:09;100555.53;;;15.22;90.20
79729;BME280;69218;52.132;5.418;2023-08-06T01:22:35;100553.03;;;15.21;90.19
79729;BME280;69218;52.132;5.418;2023-08-06T01:25:02;100558.47;;;15.19;90.91
79729;BME280;69218;52.132;5.418;2023-08-06T01:27:49;100559.63;;;15.17;90.36
79729;BME280;69218;52.132;5.418;2023-08-06T01:30:30;100557.66;;;15.19;89.72
79729;BME280;69218;52.132;5.418;2023-08-06T01:33:04;100559.31;;;15.20;90.26
79729;BME280;69218;52.132;5.418;2023-08-06T01:35:32;100553.53;;;15.16;89.66
79729;BME280;69218;52.132;5.418;2023-08-06T01:38:00;100564.91;;;15.17;90.80
79729;BME280;69218;52.132;5.418;2023-08-06T01:40:27;100557.97;;;15.16;90.39
79729;BME280;69218;52.132;5.418;2023-08-06T01:42:54;100558.81;;;15.16;90.55
79729;BME280;69218;52.132;5.418;2023-08-06T01:45:21;100555.66;;;15.13;90.33
79729;BME280;69218;52.132;5.418;2023-08-06T01:47:48;100559.09;;;15.13;90.71
79729;BME280;69218;52.132;5.418;2023-08-06T01:50:14;100561.44;;;15.16;90.75
79729;BME280;69218;52.132;5.418;2023-08-06T01:52:41;100565.91;;;15.16;90.34
79729;BME280;69218;52.132;5.418;2023-08-06T01:55:07;100566.72;;;15.16;90.44
79729;BME280;69218;52.132;5.418;2023-08-06T01:57:34;100564.91;;;15.17;91.08
79729;BME280;69218;52.132;5.418;2023-08-06T02:00:00;100563.25;;;15.16;91.28
79729;BME280;69218;52.132;5.418;2023-08-06T02:02:27;100566.22;;;15.13;90.30
79729;BME280;69218;52.132;5.418;2023-08-06T02:04:53;100568.03;;;15.12;91.14
79729;BME280;69218;52.132;5.418;2023-08-06T02:07:20;100569.66;;;15.13;91.37
79729;BME280;69218;52.132;5.418;2023-08-06T02:09:47;100566.88;;;15.15;91.57
79729;BME280;69218;52.132;5.418;2023-08-06T02:12:13;100563.25;;;15.16;91.62
79729;BME280;69218;52.132;5.418;2023-08-06T02:14:39;100569.50;;;15.15;91.44
79729;BME280;69218;52.132;5.418;2023-08-06T02:17:06;100567.69;;;15.15;91.50
79729;BME280;69218;52.132;5.418;2023-08-06T02:19:33;100568.69;;;15.14;91.05
79729;BME280;69218;52.132;5.418;2023-08-06T02:21:59;100566.22;;;15.13;91.47
79729;BME280;69218;52.132;5.418;2023-08-06T02:24:26;100562.91;;;15.10;91.44
79729;BME280;69218;52.132;5.418;2023-08-06T02:26:52;100561.09;;;15.11;91.64
79729;BME280;69218;52.132;5.418;2023-08-06T02:29:22;100557.28;;;15.14;91.86
79729;BME280;69218;52.132;5.418;2023-08-06T02:31:48;100562.91;;;15.10;91.87
79729;BME280;69218;52.132;5.418;2023-08-06T02:34:15;100568.19;;;15.10;90.92
79729;BME280;69218;52.132;5.418;2023-08-06T02:36:41;100558.44;;;15.11;91.40
79729;BME280;69218;52.132;5.418;2023-08-06T02:39:08;100559.44;;;15.10;91.52
79729;BME280;69218;52.132;5.418;2023-08-06T02:41:34;100564.56;;;15.11;91.05
79729;BME280;69218;52.132;5.418;2023-08-06T02:44:01;100558.28;;;15.13;91.58
79729;BME280;69218;52.132;5.418;2023-08-06T02:46:27;100560.25;;;15.10;91.63
79729;BME280;69218;52.132;5.418;2023-08-06T02:48:54;100557.78;;;15.09;91.48
79729;BME280;69218;52.132;5.418;2023-08-06T02:51:20;100563.19;;;15.07;91.89
79729;BME280;69218;52.132;5.418;2023-08-06T02:53:48;100556.81;;;15.10;91.39
79729;BME280;69218;52.132;5.418;2023-08-06T02:56:15;100554.81;;;15.12;91.61
79729;BME280;69218;52.132;5.418;2023-08-06T02:58:42;100543.59;;;15.10;92.20
79729;BME280;69218;52.132;5.418;2023-08-06T03:01:09;100551.81;;;15.07;92.43
79729;BME280;69218;52.132;5.418;2023-08-06T03:03:35;100552.81;;;15.06;92.13
79729;BME280;69218;52.132;5.418;2023-08-06T03:06:02;100544.72;;;15.07;91.47
79729;BME280;69218;52.132;5.418;2023-08-06T03:08:28;100546.25;;;15.10;91.80
79729;BME280;69218;52.132;5.418;2023-08-06T03:10:55;100545.41;;;15.09;91.42
79729;BME280;69218;52.132;5.418;2023-08-06T03:13:21;100536.81;;;15.07;91.91
79729;BME280;69218;52.132;5.418;2023-08-06T03:15:52;100534.31;;;15.06;91.75
79729;BME280;69218;52.132;5.418;2023-08-06T03:18:20;100538.78;;;15.05;92.71
79729;BME280;69218;52.132;5.418;2023-08-06T03:20:48;100535.47;;;15.03;92.09
79729;BME280;69218;52.132;5.418;2023-08-06T03:23:14;100537.31;;;15.03;92.62
79729;BME280;69218;52.132;5.418;2023-08-06T03:25:41;100542.75;;;15.01;91.77
79729;BME280;69218;52.132;5.418;2023-08-06T03:28:08;100546.88;;;15.04;92.17
79729;BME280;69218;52.132;5.418;2023-08-06T03:30:34;100545.06;;;15.04;92.68
79729;BME280;69218;52.132;5.418;2023-08-06T03:33:01;100543.41;;;15.03;92.05
79729;BME280;69218;52.132;5.418;2023-08-06T03:35:27;100541.59;;;15.04;92.20
79729;BME280;69218;52.132;5.418;2023-08-06T03:37:54;100550.16;;;15.06;91.84
79729;BME280;69218;52.132;5.418;2023-08-06T03:40:21;100542.25;;;15.06;91.74
79729;BME280;69218;52.132;5.418;2023-08-06T03:42:47;100539.78;;;15.04;91.78
79729;BME280;69218;52.132;5.418;2023-08-06T03:45:14;100550.50;;;15.03;92.31
79729;BME280;69218;52.132;5.418;2023-08-06T03:47:40;100542.38;;;14.96;92.46
79729;BME280;69218;52.132;5.418;2023-08-06T03:50:07;100546.00;;;14.95;92.73
79729;BME280;69218;52.132;5.418;2023-08-06T03:52:34;100540.72;;;14.95;92.61
79729;BME280;69218;52.132;5.418;2023-08-06T03:55:00;100546.50;;;14.99;92.39
79729;BME280;69218;52.132;5.418;2023-08-06T03:57:27;100549.66;;;15.02;92.26
79729;BME280;69218;52.132;5.418;2023-08-06T03:59:53;100548.03;;;15.01;92.13
79729;BME280;69218;52.132;5.418;2023-08-06T04:02:21;100547.84;;;15.03;92.02
79729;BME280;69218;52.132;5.418;2023-08-06T04:04:47;100548.69;;;15.03;92.33
79729;BME280;69218;52.132;5.418;2023-08-06T04:07:14;100550.13;;;14.98;91.69
79729;BME280;69218;52.132;5.418;2023-08-06T04:10:03;100549.63;;;14.94;92.23
79729;BME280;69218;52.132;5.418;2023-08-06T04:12:30;100548.78;;;14.94;92.42
79729;BME280;69218;52.132;5.418;2023-08-06T04:14:59;100543.38;;;14.95;92.02
79729;BME280;69218;52.132;5.418;2023-08-06T04:17:26;100547.66;;;14.96;92.31
79729;BME280;69218;52.132;5.418;2023-08-06T04:19:54;100545.69;;;14.98;92.27
79729;BME280;69218;52.132;5.418;2023-08-06T04:22:21;100545.69;;;14.98;92.38
79729;BME280;69218;52.132;5.418;2023-08-06T04:24:48;100546.50;;;14.99;92.85
79729;BME280;69218;52.132;5.418;2023-08-06T04:27:15;100553.31;;;15.01;92.87
79729;BME280;69218;52.132;5.418;2023-08-06T04:29:42;100553.81;;;15.05;92.62
79729;BME280;69218;52.132;5.418;2023-08-06T04:32:10;100556.09;;;15.08;92.06
79729;BME280;69218;52.132;5.418;2023-08-06T04:34:37;100562.38;;;15.07;92.57
79729;BME280;69218;52.132;5.418;2023-08-06T04:37:04;100557.25;;;15.05;92.18
79729;BME280;69218;52.132;5.418;2023-08-06T04:39:31;100562.25;;;15.08;91.99
79729;BME280;69218;52.132;5.418;2023-08-06T04:41:57;100567.38;;;15.10;92.33
79729;BME280;69218;52.132;5.418;2023-08-06T04:44:24;100564.56;;;15.11;92.43
79729;BME280;69218;52.132;5.418;2023-08-06T04:46:51;100572.47;;;15.11;91.89
79729;BME280;69218;52.132;5.418;2023-08-06T04:49:20;100571.31;;;15.14;91.82
79729;BME280;69218;52.132;5.418;2023-08-06T04:51:46;100569.38;;;15.16;91.31
79729;BME280;69218;52.132;5.418;2023-08-06T04:54:13;100577.78;;;15.20;92.00
79729;BME280;69218;52.132;5.418;2023-08-06T04:56:39;100574.97;;;15.21;91.41
79729;BME280;69218;52.132;5.418;2023-08-06T04:59:06;100571.22;;;15.24;91.50
79729;BME280;69218;52.132;5.418;2023-08-06T05:01:32;100571.88;;;15.26;91.35
79729;BME280;69218;52.132;5.418;2023-08-06T05:03:59;100571.88;;;15.26;91.37
79729;BME280;69218;52.132;5.418;2023-08-06T05:06:26;100580.78;;;15.25;91.83
79729;BME280;69218;52.132;5.418;2023-08-06T05:08:52;100573.84;;;15.24;91.77
79729;BME280;69218;52.132;5.418;2023-08-06T05:11:19;100585.75;;;15.28;92.60
79729;BME280;69218;52.132;5.418;2023-08-06T05:13:45;100578.66;;;15.28;92.26
79729;BME280;69218;52.132;5.418;2023-08-06T05:16:11;100581.28;;;15.28;91.67
79729;BME280;69218;52.132;5.418;2023-08-06T05:18:38;100589.72;;;15.32;91.57
79729;BME280;69218;52.132;5.418;2023-08-06T05:21:05;100591.38;;;15.33;92.02
79729;BME280;69218;52.132;5.418;2023-08-06T05:23:32;100593.84;;;15.34;91.80
79729;BME280;69218;52.132;5.418;2023-08-06T05:25:58;100593.84;;;15.34;92.42
79729;BME280;69218;52.132;5.418;2023-08-06T05:28:25;100612.00;;;15.29;91.80
79729;BME280;69218;52.132;5.418;2023-08-06T05:30:51;100601.75;;;15.26;91.86
79729;BME280;69218;52.132;5.418;2023-08-06T05:33:20;100608.69;;;15.27;92.72
79729;BME280;69218;52.132;5.418;2023-08-06T05:35:49;100608.69;;;15.27;92.27
79729;BME280;69218;52.132;5.418;2023-08-06T05:38:16;100612.31;;;15.26;92.79
79729;BME280;69218;52.132;5.418;2023-08-06T05:40:43;100613.13;;;15.27;92.76
79729;BME280;69218;52.132;5.418;2023-08-06T05:43:09;100612.00;;;15.29;92.82
79729;BME280;69218;52.132;5.418;2023-08-06T05:45:36;100620.59;;;15.31;92.39
79729;BME280;69218;52.132;5.418;2023-08-06T05:48:03;100623.41;;;15.30;92.71
79729;BME280;69218;52.132;5.418;2023-08-06T05:50:29;100627.53;;;15.32;92.38
79729;BME280;69218;52.132;5.418;2023-08-06T05:52:56;100629.34;;;15.32;93.23
79729;BME280;69218;52.132;5.418;2023-08-06T05:55:26;100630.00;;;15.34;92.87
79729;BME280;69218;52.132;5.418;2023-08-06T05:57:53;100633.19;;;15.37;92.88
79729;BME280;69218;52.132;5.418;2023-08-06T06:00:22;100628.56;;;15.39;92.62
79729;BME280;69218;52.132;5.418;2023-08-06T06:02:49;100638.28;;;15.39;92.43
79729;BME280;69218;52.132;5.418;2023-08-06T06:05:15;100641.09;;;15.37;92.75
79729;BME280;69218;52.132;5.418;2023-08-06T06:07:42;100635.81;;;15.37;92.73
79729;BME280;69218;52.132;5.418;2023-08-06T06:10:09;100644.56;;;15.38;92.69
79729;BME280;69218;52.132;5.418;2023-08-06T06:12:38;100654.16;;;15.39;92.53
79729;BME280;69218;52.132;5.418;2023-08-06T06:15:05;100647.03;;;15.39;92.67
79729;BME280;69218;52.132;5.418;2023-08-06T06:17:31;100650.19;;;15.43;92.59
79729;BME280;69218;52.132;5.418;2023-08-06T06:19:58;100653.19;;;15.48;92.92
79729;BME280;69218;52.132;5.418;2023-08-06T06:22:25;100651.19;;;15.50;92.36
79729;BME280;69218;52.132;5.418;2023-08-06T06:24:51;100661.63;;;15.52;92.00
79729;BME280;69218;52.132;5.418;2023-08-06T06:27:18;100659.66;;;15.54;92.60
79729;BME280;69218;52.132;5.418;2023-08-06T06:29:44;100669.06;;;15.56;92.22
79729;BME280;69218;52.132;5.418;2023-08-06T06:32:11;100666.94;;;15.60;91.40
79729;BME280;69218;52.132;5.418;2023-08-06T06:34:37;100663.66;;;15.58;91.60
79729;BME280;69218;52.132;5.418;2023-08-06T06:37:04;100673.22;;;15.59;92.28
79729;BME280;69218;52.132;5.418;2023-08-06T06:39:31;100670.28;;;15.62;91.09
79729;BME280;69218;52.132;5.418;2023-08-06T06:41:57;100676.09;;;15.65;92.40
79729;BME280;69218;52.132;5.418;2023-08-06T06:44:24;100679.56;;;15.66;91.58
79729;BME280;69218;52.132;5.418;2023-08-06T06:46:50;100681.50;;;15.64;92.08
79729;BME280;69218;52.132;5.418;2023-08-06T06:49:17;100680.69;;;15.63;91.86
79729;BME280;69218;52.132;5.418;2023-08-06T06:51:43;100682.50;;;15.63;91.76
79729;BME280;69218;52.132;5.418;2023-08-06T06:54:10;100678.34;;;15.60;91.76
79729;BME280;69218;52.132;5.418;2023-08-06T06:56:36;100680.16;;;15.60;92.31
79729;BME280;69218;52.132;5.418;2023-08-06T06:59:03;100683.63;;;15.60;92.26
79729;BME280;69218;52.132;5.418;2023-08-06T07:01:29;100677.38;;;15.61;92.45
79729;BME280;69218;52.132;5.418;2023-08-06T07:03:56;100678.34;;;15.60;92.12
79729;BME280;69218;52.132;5.418;2023-08-06T07:06:23;100682.66;;;15.61;91.45
79729;BME280;69218;52.132;5.418;2023-08-06T07:08:50;100681.69;;;15.62;92.11
79729;BME280;69218;52.132;5.418;2023-08-06T07:11:16;100682.03;;;15.68;91.83
79729;BME280;69218;52.132;5.418;2023-08-06T07:13:43;100686.16;;;15.70;92.57
79729;BME280;69218;52.132;5.418;2023-08-06T07:16:09;100681.56;;;15.72;92.08
79729;BME280;69218;52.132;5.418;2023-08-06T07:18:37;100687.53;;;15.74;92.54
79729;BME280;69218;52.132;5.418;2023-08-06T07:21:03;100686.53;;;15.75;92.42
79729;BME280;69218;52.132;5.418;2023-08-06T07:23:30;100683.41;;;15.80;92.28
79729;BME280;69218;52.132;5.418;2023-08-06T07:25:56;100687.38;;;15.84;91.46
79729;BME280;69218;52.132;5.418;2023-08-06T07:28:23;100688.56;;;15.89;91.76
79729;BME280;69218;52.132;5.418;2023-08-06T07:30:50;100686.44;;;15.93;91.68
79729;BME280;69218;52.132;5.418;2023-08-06T07:33:16;100690.41;;;15.97;91.82
79729;BME280;69218;52.132;5.418;2023-08-06T07:35:43;100695.22;;;16.02;91.94
79729;BME280;69218;52.132;5.418;2023-08-06T07:38:09;100699.34;;;16.04;91.08
79729;BME280;69218;52.132;5.418;2023-08-06T07:40:36;100699.88;;;16.08;91.47
79729;BME280;69218;52.132;5.418;2023-08-06T07:43:03;100699.34;;;16.12;91.36
79729;BME280;69218;52.132;5.418;2023-08-06T07:45:36;100702.53;;;16.16;90.96
79729;BME280;69218;52.132;5.418;2023-08-06T07:48:04;100700.03;;;16.14;91.09
79729;BME280;69218;52.132;5.418;2023-08-06T07:50:31;100702.69;;;16.14;91.68
79729;BME280;69218;52.132;5.418;2023-08-06T07:52:58;100699.53;;;16.11;91.21
79729;BME280;69218;52.132;5.418;2023-08-06T07:55:25;100706.47;;;16.12;91.59
79729;BME280;69218;52.132;5.418;2023-08-06T07:57:52;100711.94;;;16.10;90.46
79729;BME280;69218;52.132;5.418;2023-08-06T08:00:18;100701.50;;;16.09;90.88
79729;BME280;69218;52.132;5.418;2023-08-06T08:02:45;100703.47;;;16.07;90.89
79729;BME280;69218;52.132;5.418;2023-08-06T08:05:12;100704.63;;;16.04;90.65
79729;BME280;69218;52.132;5.418;2023-08-06T08:07:39;100706.28;;;16.05;90.88
79729;BME280;69218;52.132;5.418;2023-08-06T08:10:06;100708.28;;;16.03;91.52
79729;BME280;69218;52.132;5.418;2023-08-06T08:12:33;100712.22;;;15.99;92.02
79729;BME280;69218;52.132;5.418;2023-08-06T08:14:59;100711.69;;;15.87;90.79
79729;BME280;69218;52.132;5.418;2023-08-06T08:17:26;100709.84;;;15.80;90.93
79729;BME280;69218;52.132;5.418;2023-08-06T08:19:52;100713.63;;;15.77;91.15
79729;BME280;69218;52.132;5.418;2023-08-06T08:22:19;100710.97;;;15.77;91.83
79729;BME280;69218;52.132;5.418;2023-08-06T08:24:45;100718.25;;;15.75;91.31
79729;BME280;69218;52.132;5.418;2023-08-06T08:27:12;100721.06;;;15.74;91.17
79729;BME280;69218;52.132;5.418;2023-08-06T08:29:38;100725.00;;;15.70;91.09
79729;BME280;69218;52.132;5.418;2023-08-06T08:32:05;100724.50;;;15.66;91.44
79729;BME280;69218;52.132;5.418;2023-08-06T08:34:32;100725.91;;;15.60;91.54
79729;BME280;69218;52.132;5.418;2023-08-06T08:36:58;100735.00;;;15.58;91.22
79729;BME280;69218;52.132;5.418;2023-08-06T08:39:25;100727.91;;;15.58;91.37
79729;BME280;69218;52.132;5.418;2023-08-06T08:41:52;100731.50;;;15.57;91.07
79729;BME280;69218;52.132;5.418;2023-08-06T08:44:18;100734.31;;;15.56;90.74
79729;BME280;69218;52.132;5.418;2023-08-06T08:46:47;100727.19;;;15.56;91.02
79729;BME280;69218;52.132;5.418;2023-08-06T08:49:14;100734.31;;;15.56;91.18
79729;BME280;69218;52.132;5.418;2023-08-06T08:51:40;100733.81;;;15.52;91.33
79729;BME280;69218;52.132;5.418;2023-08-06T08:54:07;100740.91;;;15.52;90.93
79729;BME280;69218;52.132;5.418;2023-08-06T08:56:35;100736.91;;;15.48;90.96
79729;BME280;69218;52.132;5.418;2023-08-06T08:59:01;100739.38;;;15.49;91.23
79729;BME280;69218;52.132;5.418;2023-08-06T09:01:28;100747.63;;;15.46;91.53
79729;BME280;69218;52.132;5.418;2023-08-06T09:03:56;100757.75;;;15.51;91.36
79729;BME280;69218;52.132;5.418;2023-08-06T09:06:26;100761.56;;;15.56;91.40
79729;BME280;69218;52.132;5.418;2023-08-06T09:09:08;100754.78;;;15.54;90.91
79729;BME280;69218;52.132;5.418;2023-08-06T09:11:44;100761.06;;;15.53;91.06
79729;BME280;69218;52.132;5.418;2023-08-06T09:14:11;100755.59;;;15.54;91.73
79729;BME280;69218;52.132;5.418;2023-08-06T09:16:38;100764.16;;;15.48;91.46
79729;BME280;69218;52.132;5.418;2023-08-06T09:19:11;100764.47;;;15.45;91.98
79729;BME280;69218;52.132;5.418;2023-08-06T09:21:40;100766.75;;;15.40;91.76
79729;BME280;69218;52.132;5.418;2023-08-06T09:24:10;100772.03;;;15.40;91.93
79729;BME280;69218;52.132;5.418;2023-08-06T09:26:37;100781.22;;;15.36;91.98
79729;BME280;69218;52.132;5.418;2023-08-06T09:29:06;100775.81;;;15.37;92.33
79729;BME280;69218;52.132;5.418;2023-08-06T09:31:42;100787.88;;;15.40;92.27
79729;BME280;69218;52.132;5.418;2023-08-06T09:36:46;100786.22;;;15.39;91.70
79729;BME280;69218;52.132;5.418;2023-08-06T09:39:14;100786.59;;;15.44;91.80
79729;BME280;69218;52.132;5.418;2023-08-06T09:41:42;100790.19;;;15.43;92.24
79729;BME280;69218;52.132;5.418;2023-08-06T09:44:20;100797.00;;;15.46;91.83
79729;BME280;69218;52.132;5.418;2023-08-06T09:46:53;100799.47;;;15.47;91.91
79729;BME280;69218;52.132;5.418;2023-08-06T09:49:22;100801.63;;;15.44;91.47
79729;BME280;69218;52.132;5.418;2023-08-06T09:51:50;100799.47;;;15.47;92.20
79729;BME280;69218;52.132;5.418;2023-08-06T09:54:19;100799.03;;;15.52;91.84
79729;BME280;69218;52.132;5.418;2023-08-06T09:56:54;100811.09;;;15.54;91.22
79729;BME280;69218;52.132;5.418;2023-08-06T09:59:23;100810.09;;;15.55;91.36
79729;BME280;69218;52.132;5.418;2023-08-06T10:01:50;100806.13;;;15.51;90.31
79729;BME280;69218;52.132;5.418;2023-08-06T10:04:20;100820.16;;;15.52;91.36
79729;BME280;69218;52.132;5.418;2023-08-06T10:06:53;100822.31;;;15.56;91.32
79729;BME280;69218;52.132;5.418;2023-08-06T10:09:20;100822.72;;;15.61;91.40
79729;BME280;69218;52.132;5.418;2023-08-06T10:11:51;100825.66;;;15.58;90.96
79729;BME280;69218;52.132;5.418;2023-08-06T10:14:24;100829.97;;;15.59;91.78
79729;BME280;69218;52.132;5.418;2023-08-06T10:16:53;100841.16;;;15.53;91.46
79729;BME280;69218;52.132;5.418;2023-08-06T10:19:23;100829.59;;;15.54;91.95
79729;BME280;69218;52.132;5.418;2023-08-06T10:22:15;100827.31;;;15.59;92.12
79729;BME280;69218;52.132;5.418;2023-08-06T10:27:12;100841.66;;;15.57;91.22
79729;BME280;69218;52.132;5.418;2023-08-06T10:29:39;100828.00;;;15.61;92.08
79729;BME280;69218;52.132;5.418;2023-08-06T10:32:05;100829.06;;;15.69;91.14
79729;BME280;69218;52.132;5.418;2023-08-06T10:34:57;100828.44;;;15.75;91.66
79729;BME280;69218;52.132;5.418;2023-08-06T10:37:34;100826.16;;;15.80;90.95
79729;BME280;69218;52.132;5.418;2023-08-06T10:40:02;100835.94;;;15.87;91.95
79729;BME280;69218;52.132;5.418;2023-08-06T10:42:30;100836.97;;;15.95;91.62
79729;BME280;69218;52.132;5.418;2023-08-06T10:47:42;100829.53;;;15.98;91.02
79729;BME280;69218;52.132;5.418;2023-08-06T10:50:17;100835.47;;;15.92;91.41
79729;BME280;69218;52.132;5.418;2023-08-06T10:52:45;100832.16;;;15.90;90.56
79729;BME280;69218;52.132;5.418;2023-08-06T10:55:33;100840.75;;;15.92;90.77
79729;BME280;69218;52.132;5.418;2023-08-06T10:57:59;100844.03;;;15.86;91.47
79729;BME280;69218;52.132;5.418;2023-08-06T11:00:26;100842.56;;;15.91;90.93
79729;BME280;69218;52.132;5.418;2023-08-06T11:02:53;100848.84;;;15.90;90.81
79729;BME280;69218;52.132;5.418;2023-08-06T11:05:20;100857.75;;;15.89;91.00
79729;BME280;69218;52.132;5.418;2023-08-06T11:07:47;100854.28;;;15.89;90.32
79729;BME280;69218;52.132;5.418;2023-08-06T11:10:15;100857.81;;;15.98;91.04
79729;BME280;69218;52.132;5.418;2023-08-06T11:12:42;100859.63;;;15.97;90.53
79729;BME280;69218;52.132;5.418;2023-08-06T11:15:09;100859.47;;;15.99;90.23
79729;BME280;69218;52.132;5.418;2023-08-06T11:17:36;100859.19;;;16.10;91.29
79729;BME280;69218;52.132;5.418;2023-08-06T11:20:04;100872.88;;;16.05;90.14
79729;BME280;69218;52.132;5.418;2023-08-06T11:22:31;100869.41;;;16.05;90.82
79729;BME280;69218;52.132;5.418;2023-08-06T11:24:58;100870.56;;;16.02;89.38
79729;BME280;69218;52.132;5.418;2023-08-06T11:27:26;100869.91;;;16.00;89.20
79729;BME280;69218;52.132;5.418;2023-08-06T11:29:53;100875.84;;;16.02;89.71
79729;BME280;69218;52.132;5.418;2023-08-06T11:32:20;100882.97;;;16.02;89.30
79729;BME280;69218;52.132;5.418;2023-08-06T11:34:46;100878.44;;;15.94;89.12
79729;BME280;69218;52.132;5.418;2023-08-06T11:37:13;100873.63;;;15.89;89.22
79729;BME280;69218;52.132;5.418;2023-08-06T11:39:47;100881.78;;;15.78;90.85
79729;BME280;69218;52.132;5.418;2023-08-06T11:42:16;100891.19;;;15.73;90.96
79729;BME280;69218;52.132;5.418;2023-08-06T11:44:43;100892.19;;;15.72;90.60
79729;BME280;69218;52.132;5.418;2023-08-06T11:47:16;100888.19;;;15.68;90.02
79729;BME280;69218;52.132;5.418;2023-08-06T11:49:47;100884.03;;;15.65;90.23
79729;BME280;69218;52.132;5.418;2023-08-06T11:52:22;100887.41;;;15.57;89.64
79729;BME280;69218;52.132;5.418;2023-08-06T11:55:06;100885.75;;;15.56;89.61
79729;BME280;69218;52.132;5.418;2023-08-06T11:57:34;100884.84;;;15.48;89.17
79729;BME280;69218;52.132;5.418;2023-08-06T12:00:06;100892.09;;;15.46;89.41
79729;BME280;69218;52.132;5.418;2023-08-06T12:02:34;100888.81;;;15.44;89.80
79729;BME280;69218;52.132;5.418;2023-08-06T12:07:41;100887.66;;;15.46;90.20
79729;BME280;69218;52.132;5.418;2023-08-06T12:10:08;100891.22;;;15.37;89.89
79729;BME280;69218;52.132;5.418;2023-08-06T12:12:35;100892.56;;;15.41;89.93
79729;BME280;69218;52.132;5.418;2023-08-06T12:15:02;100885.16;;;15.45;90.13
79729;BME280;69218;52.132;5.418;2023-08-06T12:17:28;100897.91;;;15.49;90.59
79729;BME280;69218;52.132;5.418;2023-08-06T12:19:55;100895.41;;;15.48;90.49
79729;BME280;69218;52.132;5.418;2023-08-06T12:22:21;100904.00;;;15.50;91.40
79729;BME280;69218;52.132;5.418;2023-08-06T12:24:50;100907.66;;;15.49;91.43
79729;BME280;69218;52.132;5.418;2023-08-06T12:27:17;100909.63;;;15.47;91.33
79729;BME280;69218;52.132;5.418;2023-08-06T12:29:47;100915.28;;;15.52;91.27
79729;BME280;69218;52.132;5.418;2023-08-06T12:32:14;100921.41;;;15.52;91.26
79729;BME280;69218;52.132;5.418;2023-08-06T12:34:42;100926.06;;;15.58;91.25
79729;BME280;69218;52.132;5.418;2023-08-06T12:37:19;100926.06;;;15.58;90.80
79729;BME280;69218;52.132;5.418;2023-08-06T12:39:46;100919.97;;;15.58;90.82
79729;BME280;69218;52.132;5.418;2023-08-06T12:42:12;100929.38;;;15.60;90.95
79729;BME280;69218;52.132;5.418;2023-08-06T12:44:39;100935.50;;;15.61;91.48
79729;BME280;69218;52.132;5.418;2023-08-06T12:47:07;100935.66;;;15.59;91.21
79729;BME280;69218;52.132;5.418;2023-08-06T12:49:33;100934.53;;;15.62;91.26
79729;BME280;69218;52.132;5.418;2023-08-06T12:52:00;100933.84;;;15.60;90.45
79729;BME280;69218;52.132;5.418;2023-08-06T12:54:27;100938.00;;;15.62;91.59
79729;BME280;69218;52.132;5.418;2023-08-06T12:56:54;100947.16;;;15.68;91.05
79729;BME280;69218;52.132;5.418;2023-08-06T12:59:20;100946.53;;;15.74;91.64
79729;BME280;69218;52.132;5.418;2023-08-06T13:01:47;100951.16;;;15.72;91.29
79729;BME280;69218;52.132;5.418;2023-08-06T13:04:14;100946.72;;;15.73;91.02